sensor_id;sensor_type;location;lat;lon;timestamp;P1;durP1;ratioP1;P2;durP2;ratioP2
74926;SDS011;63488;48.092;-1.640;2024-01-15T00:01:36;35.40;;;24.77;;
74926;SDS011;63488;48.092;-1.640;2024-01-15T00:04:01;35.83;;;25.02;;
74926;SDS011;63488;48.092;-1.640;2024-01-15T00:06:27;36.75;;;25.35;;
74926;SDS011;63488;48.092;-1.640;2024-01-15T00:08:53;34.80;;;25.10;;
74926;SDS011;63488;48.092;-1.640;2024-01-15T00:11:18;34.40;;;25.05;;
74926;SDS011;63488;48.092;-1.640;2024-01-15T00:13:44;35.15;;;24.92;;
74926;SDS011;63488;48.092;-1.640;2024-01-15T00:16:09;36.10;;;24.48;;
74926;SDS011;63488;48.092;-1.640;2024-01-15T00:18:35;34.90;;;23.95;;
74926;SDS011;63488;48.092;-1.640;2024-01-15T00:21:01;33.67;;;24.58;;
74926;SDS011;63488;48.092;-1.640;2024-01-15T00:23:26;33.67;;;23.73;;
74926;SDS011;63488;48.092;-1.640;2024-01-15T00:25:51;35.15;;;24.58;;
74926;SDS011;63488;48.092;-1.640;2024-01-15T00:28:16;35.22;;;24.23;;
74926;SDS011;63488;48.092;-1.640;2024-01-15T00:30:42;33.80;;;24.25;;
74926;SDS011;63488;48.092;-1.640;2024-01-15T00:33:07;34.35;;;24.33;;
74926;SDS011;63488;48.092;-1.640;2024-01-15T00:35:32;33.95;;;24.50;;
74926;SDS011;63488;48.092;-1.640;2024-01-15T00:37:58;32.72;;;23.55;;
74926;SDS011;63488;48.092;-1.640;2024-01-15T00:40:23;33.10;;;24.20;;
74926;SDS011;63488;48.092;-1.640;2024-01-15T00:42:50;33.90;;;23.35;;
74926;SDS011;63488;48.092;-1.640;2024-01-15T00:45:15;32.45;;;23.23;;
74926;SDS011;63488;48.092;-1.640;2024-01-15T00:47:41;30.75;;;23.02;;
74926;SDS011;63488;48.092;-1.640;2024-01-15T00:50:06;29.98;;;22.27;;
74926;SDS011;63488;48.092;-1.640;2024-01-15T00:52:31;31.63;;;21.92;;
74926;SDS011;63488;48.092;-1.640;2024-01-15T00:54:57;31.80;;;22.60;;
74926;SDS011;63488;48.092;-1.640;2024-01-15T00:57:22;29.58;;;21.55;;
74926;SDS011;63488;48.092;-1.640;2024-01-15T00:59:47;30.42;;;22.25;;
74926;SDS011;63488;48.092;-1.640;2024-01-15T01:02:13;29.48;;;21.42;;
74926;SDS011;63488;48.092;-1.640;2024-01-15T01:04:38;31.38;;;21.95;;
74926;SDS011;63488;48.092;-1.640;2024-01-15T01:07:04;30.17;;;21.90;;
74926;SDS011;63488;48.092;-1.640;2024-01-15T01:09:29;30.98;;;21.52;;
74926;SDS011;63488;48.092;-1.640;2024-01-15T01:11:55;29.90;;;21.58;;
74926;SDS011;63488;48.092;-1.640;2024-01-15T01:14:20;29.95;;;21.13;;
74926;SDS011;63488;48.092;-1.640;2024-01-15T01:16:46;30.33;;;21.65;;
74926;SDS011;63488;48.092;-1.640;2024-01-15T01:19:11;31.52;;;21.52;;
74926;SDS011;63488;48.092;-1.640;2024-01-15T01:21:36;28.95;;;21.17;;
74926;SDS011;63488;48.092;-1.640;2024-01-15T01:24:02;29.73;;;21.25;;
74926;SDS011;63488;48.092;-1.640;2024-01-15T01:26:27;28.42;;;20.70;;
74926;SDS011;63488;48.092;-1.640;2024-01-15T01:28:52;27.95;;;19.85;;
74926;SDS011;63488;48.092;-1.640;2024-01-15T01:31:18;28.25;;;19.67;;
74926;SDS011;63488;48.092;-1.640;2024-01-15T01:33:43;29.92;;;21.02;;
74926;SDS011;63488;48.092;-1.640;2024-01-15T01:36:09;29.25;;;20.30;;
74926;SDS011;63488;48.092;-1.640;2024-01-15T01:38:37;29.40;;;20.10;;
74926;SDS011;63488;48.092;-1.640;2024-01-15T01:41:03;27.42;;;20.20;;
74926;SDS011;63488;48.092;-1.640;2024-01-15T01:43:28;26.83;;;19.80;;
74926;SDS011;63488;48.092;-1.640;2024-01-15T01:45:54;28.00;;;19.70;;
74926;SDS011;63488;48.092;-1.640;2024-01-15T01:48:21;27.73;;;20.05;;
74926;SDS011;63488;48.092;-1.640;2024-01-15T01:50:46;28.05;;;19.85;;
74926;SDS011;63488;48.092;-1.640;2024-01-15T01:53:12;25.92;;;19.27;;
74926;SDS011;63488;48.092;-1.640;2024-01-15T01:55:37;28.45;;;19.70;;
74926;SDS011;63488;48.092;-1.640;2024-01-15T01:58:03;26.58;;;19.27;;
74926;SDS011;63488;48.092;-1.640;2024-01-15T02:00:29;24.95;;;18.70;;
74926;SDS011;63488;48.092;-1.640;2024-01-15T02:02:55;28.00;;;19.70;;
74926;SDS011;63488;48.092;-1.640;2024-01-15T02:05:21;27.15;;;18.90;;
74926;SDS011;63488;48.092;-1.640;2024-01-15T02:07:47;26.40;;;18.38;;
74926;SDS011;63488;48.092;-1.640;2024-01-15T02:10:12;24.38;;;17.77;;
74926;SDS011;63488;48.092;-1.640;2024-01-15T02:12:38;23.98;;;18.25;;
74926;SDS011;63488;48.092;-1.640;2024-01-15T02:15:03;25.70;;;18.67;;
74926;SDS011;63488;48.092;-1.640;2024-01-15T02:17:29;24.65;;;18.60;;
74926;SDS011;63488;48.092;-1.640;2024-01-15T02:19:54;22.92;;;17.30;;
74926;SDS011;63488;48.092;-1.640;2024-01-15T02:22:20;23.30;;;17.33;;
74926;SDS011;63488;48.092;-1.640;2024-01-15T02:24:45;23.65;;;17.90;;
74926;SDS011;63488;48.092;-1.640;2024-01-15T02:27:10;24.15;;;17.08;;
74926;SDS011;63488;48.092;-1.640;2024-01-15T02:29:36;23.35;;;17.02;;
74926;SDS011;63488;48.092;-1.640;2024-01-15T02:32:05;23.98;;;16.95;;
74926;SDS011;63488;48.092;-1.640;2024-01-15T02:34:31;22.88;;;16.48;;
74926;SDS011;63488;48.092;-1.640;2024-01-15T02:36:56;22.70;;;16.77;;
74926;SDS011;63488;48.092;-1.640;2024-01-15T02:39:22;21.40;;;15.75;;
74926;SDS011;63488;48.092;-1.640;2024-01-15T02:41:47;21.77;;;15.65;;
74926;SDS011;63488;48.092;-1.640;2024-01-15T02:44:13;22.73;;;16.05;;
74926;SDS011;63488;48.092;-1.640;2024-01-15T02:46:38;23.13;;;15.43;;
74926;SDS011;63488;48.092;-1.640;2024-01-15T02:49:03;20.30;;;14.48;;
74926;SDS011;63488;48.092;-1.640;2024-01-15T02:51:28;21.08;;;15.27;;
74926;SDS011;63488;48.092;-1.640;2024-01-15T02:53:54;22.88;;;15.60;;
74926;SDS011;63488;48.092;-1.640;2024-01-15T02:56:19;21.52;;;15.40;;
74926;SDS011;63488;48.092;-1.640;2024-01-15T02:58:44;21.48;;;16.13;;
74926;SDS011;63488;48.092;-1.640;2024-01-15T03:01:10;19.15;;;15.10;;
74926;SDS011;63488;48.092;-1.640;2024-01-15T03:03:35;22.60;;;16.52;;
74926;SDS011;63488;48.092;-1.640;2024-01-15T03:06:01;21.38;;;15.63;;
74926;SDS011;63488;48.092;-1.640;2024-01-15T03:08:27;23.27;;;16.15;;
74926;SDS011;63488;48.092;-1.640;2024-01-15T03:10:54;21.55;;;15.75;;
74926;SDS011;63488;48.092;-1.640;2024-01-15T03:13:19;22.67;;;15.88;;
74926;SDS011;63488;48.092;-1.640;2024-01-15T03:15:44;22.75;;;16.55;;
74926;SDS011;63488;48.092;-1.640;2024-01-15T03:18:10;19.83;;;14.90;;
74926;SDS011;63488;48.092;-1.640;2024-01-15T03:20:35;21.77;;;16.00;;
74926;SDS011;63488;48.092;-1.640;2024-01-15T03:23:00;19.92;;;15.43;;
74926;SDS011;63488;48.092;-1.640;2024-01-15T03:25:26;20.25;;;14.90;;
74926;SDS011;63488;48.092;-1.640;2024-01-15T03:27:51;18.70;;;14.65;;
74926;SDS011;63488;48.092;-1.640;2024-01-15T03:30:16;18.65;;;13.95;;
74926;SDS011;63488;48.092;-1.640;2024-01-15T03:32:42;20.95;;;13.95;;
74926;SDS011;63488;48.092;-1.640;2024-01-15T03:35:07;18.13;;;13.13;;
74926;SDS011;63488;48.092;-1.640;2024-01-15T03:37:32;18.42;;;13.52;;
74926;SDS011;63488;48.092;-1.640;2024-01-15T03:39:58;18.77;;;13.90;;
74926;SDS011;63488;48.092;-1.640;2024-01-15T03:42:23;18.17;;;13.68;;
74926;SDS011;63488;48.092;-1.640;2024-01-15T03:44:48;18.25;;;13.38;;
74926;SDS011;63488;48.092;-1.640;2024-01-15T03:47:14;17.60;;;12.95;;
74926;SDS011;63488;48.092;-1.640;2024-01-15T03:49:39;16.23;;;12.32;;
74926;SDS011;63488;48.092;-1.640;2024-01-15T03:52:05;17.40;;;12.75;;
74926;SDS011;63488;48.092;-1.640;2024-01-15T03:54:30;16.55;;;12.77;;
74926;SDS011;63488;48.092;-1.640;2024-01-15T03:56:55;17.25;;;13.13;;
74926;SDS011;63488;48.092;-1.640;2024-01-15T03:59:21;16.20;;;12.27;;
74926;SDS011;63488;48.092;-1.640;2024-01-15T04:01:49;15.57;;;11.85;;
74926;SDS011;63488;48.092;-1.640;2024-01-15T04:04:16;17.83;;;12.43;;
74926;SDS011;63488;48.092;-1.640;2024-01-15T04:06:41;16.67;;;12.30;;
74926;SDS011;63488;48.092;-1.640;2024-01-15T04:09:06;17.05;;;13.00;;
74926;SDS011;63488;48.092;-1.640;2024-01-15T04:11:32;16.27;;;12.35;;
74926;SDS011;63488;48.092;-1.640;2024-01-15T04:13:57;16.02;;;12.70;;
74926;SDS011;63488;48.092;-1.640;2024-01-15T04:16:22;17.13;;;12.57;;
74926;SDS011;63488;48.092;-1.640;2024-01-15T04:18:48;16.23;;;12.27;;
74926;SDS011;63488;48.092;-1.640;2024-01-15T04:21:13;17.00;;;12.20;;
74926;SDS011;63488;48.092;-1.640;2024-01-15T04:23:38;14.98;;;11.55;;
74926;SDS011;63488;48.092;-1.640;2024-01-15T04:26:04;16.95;;;12.32;;
74926;SDS011;63488;48.092;-1.640;2024-01-15T04:28:29;15.50;;;11.75;;
74926;SDS011;63488;48.092;-1.640;2024-01-15T04:30:54;15.95;;;11.90;;
74926;SDS011;63488;48.092;-1.640;2024-01-15T04:33:20;14.82;;;11.52;;
74926;SDS011;63488;48.092;-1.640;2024-01-15T04:35:45;15.88;;;12.25;;
74926;SDS011;63488;48.092;-1.640;2024-01-15T04:38:10;16.20;;;12.63;;
74926;SDS011;63488;48.092;-1.640;2024-01-15T04:40:36;17.90;;;12.80;;
74926;SDS011;63488;48.092;-1.640;2024-01-15T04:43:01;16.73;;;12.25;;
74926;SDS011;63488;48.092;-1.640;2024-01-15T04:45:26;16.38;;;12.23;;
74926;SDS011;63488;48.092;-1.640;2024-01-15T04:47:55;16.13;;;11.45;;
74926;SDS011;63488;48.092;-1.640;2024-01-15T04:50:23;14.63;;;11.07;;
74926;SDS011;63488;48.092;-1.640;2024-01-15T04:52:49;14.02;;;11.05;;
74926;SDS011;63488;48.092;-1.640;2024-01-15T04:55:14;14.35;;;11.07;;
74926;SDS011;63488;48.092;-1.640;2024-01-15T04:57:40;13.20;;;10.35;;
74926;SDS011;63488;48.092;-1.640;2024-01-15T05:00:06;15.90;;;11.10;;
74926;SDS011;63488;48.092;-1.640;2024-01-15T05:02:31;15.43;;;10.40;;
74926;SDS011;63488;48.092;-1.640;2024-01-15T05:04:56;13.52;;;10.88;;
74926;SDS011;63488;48.092;-1.640;2024-01-15T05:07:22;13.65;;;10.40;;
74926;SDS011;63488;48.092;-1.640;2024-01-15T05:09:47;15.02;;;10.68;;
74926;SDS011;63488;48.092;-1.640;2024-01-15T05:12:12;14.98;;;10.70;;
74926;SDS011;63488;48.092;-1.640;2024-01-15T05:14:38;14.38;;;10.60;;
74926;SDS011;63488;48.092;-1.640;2024-01-15T05:17:03;13.95;;;10.05;;
74926;SDS011;63488;48.092;-1.640;2024-01-15T05:19:29;14.45;;;10.45;;
74926;SDS011;63488;48.092;-1.640;2024-01-15T05:21:54;15.70;;;10.05;;
74926;SDS011;63488;48.092;-1.640;2024-01-15T05:24:19;14.23;;;10.75;;
74926;SDS011;63488;48.092;-1.640;2024-01-15T05:26:44;15.55;;;10.80;;
74926;SDS011;63488;48.092;-1.640;2024-01-15T05:29:10;13.50;;;9.80;;
74926;SDS011;63488;48.092;-1.640;2024-01-15T05:31:35;13.30;;;10.27;;
74926;SDS011;63488;48.092;-1.640;2024-01-15T05:34:01;13.82;;;10.45;;
74926;SDS011;63488;48.092;-1.640;2024-01-15T05:36:26;13.25;;;9.77;;
74926;SDS011;63488;48.092;-1.640;2024-01-15T05:38:51;13.82;;;10.02;;
74926;SDS011;63488;48.092;-1.640;2024-01-15T05:41:17;12.57;;;9.65;;
74926;SDS011;63488;48.092;-1.640;2024-01-15T05:43:43;12.07;;;9.30;;
74926;SDS011;63488;48.092;-1.640;2024-01-15T05:46:08;12.35;;;9.90;;
74926;SDS011;63488;48.092;-1.640;2024-01-15T05:48:33;13.88;;;9.45;;
74926;SDS011;63488;48.092;-1.640;2024-01-15T05:50:59;13.60;;;9.70;;
74926;SDS011;63488;48.092;-1.640;2024-01-15T05:53:24;12.10;;;9.13;;
74926;SDS011;63488;48.092;-1.640;2024-01-15T05:55:50;13.38;;;9.10;;
74926;SDS011;63488;48.092;-1.640;2024-01-15T05:58:15;11.20;;;8.93;;
74926;SDS011;63488;48.092;-1.640;2024-01-15T06:00:40;11.32;;;8.80;;
74926;SDS011;63488;48.092;-1.640;2024-01-15T06:03:06;10.90;;;8.85;;
74926;SDS011;63488;48.092;-1.640;2024-01-15T06:05:31;11.23;;;9.10;;
74926;SDS011;63488;48.092;-1.640;2024-01-15T06:07:56;10.77;;;8.40;;
74926;SDS011;63488;48.092;-1.640;2024-01-15T06:10:22;11.48;;;9.30;;
74926;SDS011;63488;48.092;-1.640;2024-01-15T06:12:47;12.27;;;9.43;;
74926;SDS011;63488;48.092;-1.640;2024-01-15T06:15:12;11.02;;;8.85;;
74926;SDS011;63488;48.092;-1.640;2024-01-15T06:17:38;12.70;;;9.50;;
74926;SDS011;63488;48.092;-1.640;2024-01-15T06:20:03;12.82;;;9.60;;
74926;SDS011;63488;48.092;-1.640;2024-01-15T06:22:29;11.52;;;9.30;;
74926;SDS011;63488;48.092;-1.640;2024-01-15T06:24:54;11.80;;;9.25;;
74926;SDS011;63488;48.092;-1.640;2024-01-15T06:27:20;12.15;;;9.88;;
74926;SDS011;63488;48.092;-1.640;2024-01-15T06:29:46;12.20;;;8.95;;
74926;SDS011;63488;48.092;-1.640;2024-01-15T06:32:12;13.40;;;9.68;;
74926;SDS011;63488;48.092;-1.640;2024-01-15T06:34:37;13.77;;;9.60;;
74926;SDS011;63488;48.092;-1.640;2024-01-15T06:37:03;11.93;;;9.27;;
74926;SDS011;63488;48.092;-1.640;2024-01-15T06:39:28;13.13;;;9.63;;
74926;SDS011;63488;48.092;-1.640;2024-01-15T06:41:53;12.77;;;9.50;;
74926;SDS011;63488;48.092;-1.640;2024-01-15T06:44:19;14.30;;;9.90;;
74926;SDS011;63488;48.092;-1.640;2024-01-15T06:46:47;12.48;;;10.02;;
74926;SDS011;63488;48.092;-1.640;2024-01-15T06:49:14;13.20;;;10.13;;
74926;SDS011;63488;48.092;-1.640;2024-01-15T06:51:41;11.40;;;9.30;;
74926;SDS011;63488;48.092;-1.640;2024-01-15T06:54:08;13.52;;;9.93;;
74926;SDS011;63488;48.092;-1.640;2024-01-15T06:56:33;13.02;;;10.40;;
74926;SDS011;63488;48.092;-1.640;2024-01-15T06:58:59;13.98;;;10.80;;
74926;SDS011;63488;48.092;-1.640;2024-01-15T07:01:24;13.80;;;10.77;;
74926;SDS011;63488;48.092;-1.640;2024-01-15T07:03:49;14.05;;;10.95;;
74926;SDS011;63488;48.092;-1.640;2024-01-15T07:06:15;14.90;;;11.60;;
74926;SDS011;63488;48.092;-1.640;2024-01-15T07:08:41;13.93;;;11.13;;
74926;SDS011;63488;48.092;-1.640;2024-01-15T07:11:06;14.27;;;11.40;;
74926;SDS011;63488;48.092;-1.640;2024-01-15T07:13:32;13.85;;;11.40;;
74926;SDS011;63488;48.092;-1.640;2024-01-15T07:15:57;16.02;;;11.98;;
74926;SDS011;63488;48.092;-1.640;2024-01-15T07:18:22;14.35;;;11.25;;
74926;SDS011;63488;48.092;-1.640;2024-01-15T07:20:48;15.02;;;11.48;;
74926;SDS011;63488;48.092;-1.640;2024-01-15T07:23:13;14.80;;;11.55;;
74926;SDS011;63488;48.092;-1.640;2024-01-15T07:25:39;16.33;;;11.57;;
74926;SDS011;63488;48.092;-1.640;2024-01-15T07:28:04;15.02;;;11.35;;
74926;SDS011;63488;48.092;-1.640;2024-01-15T07:30:29;15.18;;;12.10;;
74926;SDS011;63488;48.092;-1.640;2024-01-15T07:32:55;15.15;;;11.73;;
74926;SDS011;63488;48.092;-1.640;2024-01-15T07:35:20;14.02;;;11.20;;
74926;SDS011;63488;48.092;-1.640;2024-01-15T07:37:46;14.40;;;11.18;;
74926;SDS011;63488;48.092;-1.640;2024-01-15T07:40:11;14.13;;;11.07;;
74926;SDS011;63488;48.092;-1.640;2024-01-15T07:42:37;16.52;;;11.63;;
74926;SDS011;63488;48.092;-1.640;2024-01-15T07:45:03;13.75;;;10.50;;
74926;SDS011;63488;48.092;-1.640;2024-01-15T07:47:28;14.05;;;10.80;;
74926;SDS011;63488;48.092;-1.640;2024-01-15T07:49:54;15.05;;;10.70;;
74926;SDS011;63488;48.092;-1.640;2024-01-15T07:52:20;14.30;;;11.00;;
74926;SDS011;63488;48.092;-1.640;2024-01-15T07:54:46;12.90;;;10.50;;
74926;SDS011;63488;48.092;-1.640;2024-01-15T07:57:11;13.00;;;9.98;;
74926;SDS011;63488;48.092;-1.640;2024-01-15T07:59:36;13.65;;;10.48;;
74926;SDS011;63488;48.092;-1.640;2024-01-15T08:02:02;14.25;;;10.18;;
74926;SDS011;63488;48.092;-1.640;2024-01-15T08:04:27;13.98;;;10.00;;
74926;SDS011;63488;48.092;-1.640;2024-01-15T08:06:53;12.00;;;9.40;;
74926;SDS011;63488;48.092;-1.640;2024-01-15T08:09:18;13.70;;;10.60;;
74926;SDS011;63488;48.092;-1.640;2024-01-15T08:11:43;12.75;;;9.90;;
74926;SDS011;63488;48.092;-1.640;2024-01-15T08:14:09;14.02;;;10.77;;
74926;SDS011;63488;48.092;-1.640;2024-01-15T08:16:35;12.57;;;9.77;;
74926;SDS011;63488;48.092;-1.640;2024-01-15T08:19:01;12.30;;;10.02;;
74926;SDS011;63488;48.092;-1.640;2024-01-15T08:21:26;15.85;;;10.60;;
74926;SDS011;63488;48.092;-1.640;2024-01-15T08:23:55;15.80;;;11.85;;
74926;SDS011;63488;48.092;-1.640;2024-01-15T08:26:20;14.13;;;11.23;;
74926;SDS011;63488;48.092;-1.640;2024-01-15T08:28:46;14.10;;;11.20;;
74926;SDS011;63488;48.092;-1.640;2024-01-15T08:31:12;14.73;;;11.70;;
74926;SDS011;63488;48.092;-1.640;2024-01-15T08:33:37;15.93;;;12.15;;
74926;SDS011;63488;48.092;-1.640;2024-01-15T08:36:03;15.57;;;11.45;;
74926;SDS011;63488;48.092;-1.640;2024-01-15T08:38:28;16.20;;;11.50;;
74926;SDS011;63488;48.092;-1.640;2024-01-15T08:40:54;16.45;;;12.25;;
74926;SDS011;63488;48.092;-1.640;2024-01-15T08:43:21;15.07;;;11.63;;
74926;SDS011;63488;48.092;-1.640;2024-01-15T08:45:47;12.88;;;8.90;;
74926;SDS011;63488;48.092;-1.640;2024-01-15T08:48:13;12.90;;;8.88;;
74926;SDS011;63488;48.092;-1.640;2024-01-15T08:50:38;13.57;;;9.95;;
74926;SDS011;63488;48.092;-1.640;2024-01-15T08:53:04;13.98;;;10.18;;
74926;SDS011;63488;48.092;-1.640;2024-01-15T08:55:29;15.40;;;10.02;;
74926;SDS011;63488;48.092;-1.640;2024-01-15T08:57:54;13.57;;;10.27;;
74926;SDS011;63488;48.092;-1.640;2024-01-15T09:00:20;16.88;;;10.68;;
74926;SDS011;63488;48.092;-1.640;2024-01-15T09:02:45;15.32;;;10.73;;
74926;SDS011;63488;48.092;-1.640;2024-01-15T09:05:10;15.57;;;10.65;;
74926;SDS011;63488;48.092;-1.640;2024-01-15T09:07:36;13.80;;;10.32;;
74926;SDS011;63488;48.092;-1.640;2024-01-15T09:10:01;16.52;;;10.80;;
74926;SDS011;63488;48.092;-1.640;2024-01-15T09:12:27;15.85;;;11.38;;
74926;SDS011;63488;48.092;-1.640;2024-01-15T09:14:52;19.40;;;11.80;;
74926;SDS011;63488;48.092;-1.640;2024-01-15T09:17:18;18.13;;;11.82;;
74926;SDS011;63488;48.092;-1.640;2024-01-15T09:19:44;18.33;;;11.75;;
74926;SDS011;63488;48.092;-1.640;2024-01-15T09:22:09;15.65;;;10.90;;
74926;SDS011;63488;48.092;-1.640;2024-01-15T09:24:35;19.00;;;12.90;;
74926;SDS011;63488;48.092;-1.640;2024-01-15T09:27:00;19.73;;;12.52;;
74926;SDS011;63488;48.092;-1.640;2024-01-15T09:29:26;19.67;;;12.05;;
74926;SDS011;63488;48.092;-1.640;2024-01-15T09:31:52;19.35;;;11.88;;
74926;SDS011;63488;48.092;-1.640;2024-01-15T09:34:18;16.48;;;12.07;;
74926;SDS011;63488;48.092;-1.640;2024-01-15T09:36:44;22.25;;;13.10;;
74926;SDS011;63488;48.092;-1.640;2024-01-15T09:39:09;20.40;;;11.98;;
74926;SDS011;63488;48.092;-1.640;2024-01-15T09:41:36;20.60;;;12.70;;
74926;SDS011;63488;48.092;-1.640;2024-01-15T09:44:02;19.13;;;12.23;;
74926;SDS011;63488;48.092;-1.640;2024-01-15T09:46:28;21.20;;;12.75;;
74926;SDS011;63488;48.092;-1.640;2024-01-15T09:48:53;17.90;;;12.30;;
74926;SDS011;63488;48.092;-1.640;2024-01-15T09:51:18;20.10;;;13.02;;
74926;SDS011;63488;48.092;-1.640;2024-01-15T09:53:44;18.27;;;12.10;;
74926;SDS011;63488;48.092;-1.640;2024-01-15T09:56:10;17.55;;;12.50;;
74926;SDS011;63488;48.092;-1.640;2024-01-15T09:58:35;18.58;;;11.13;;
74926;SDS011;63488;48.092;-1.640;2024-01-15T10:01:01;18.80;;;11.73;;
74926;SDS011;63488;48.092;-1.640;2024-01-15T10:03:28;15.63;;;11.38;;
74926;SDS011;63488;48.092;-1.640;2024-01-15T10:05:53;14.70;;;12.00;;
74926;SDS011;63488;48.092;-1.640;2024-01-15T10:08:19;15.68;;;10.57;;
74926;SDS011;63488;48.092;-1.640;2024-01-15T10:10:45;12.20;;;9.02;;
74926;SDS011;63488;48.092;-1.640;2024-01-15T10:13:10;14.75;;;9.15;;
74926;SDS011;63488;48.092;-1.640;2024-01-15T10:15:37;12.82;;;9.60;;
74926;SDS011;63488;48.092;-1.640;2024-01-15T10:18:03;11.05;;;7.40;;
74926;SDS011;63488;48.092;-1.640;2024-01-15T10:20:28;12.20;;;8.73;;
74926;SDS011;63488;48.092;-1.640;2024-01-15T10:22:54;11.90;;;8.82;;
74926;SDS011;63488;48.092;-1.640;2024-01-15T10:25:20;12.82;;;8.63;;
74926;SDS011;63488;48.092;-1.640;2024-01-15T10:28:00;10.15;;;7.18;;
74926;SDS011;63488;48.092;-1.640;2024-01-15T10:30:26;13.55;;;8.00;;
74926;SDS011;63488;48.092;-1.640;2024-01-15T10:33:01;11.43;;;6.53;;
74926;SDS011;63488;48.092;-1.640;2024-01-15T10:35:29;9.75;;;5.60;;
74926;SDS011;63488;48.092;-1.640;2024-01-15T10:37:54;9.57;;;6.00;;
74926;SDS011;63488;48.092;-1.640;2024-01-15T10:40:19;8.75;;;5.18;;
74926;SDS011;63488;48.092;-1.640;2024-01-15T10:42:45;10.23;;;4.93;;
74926;SDS011;63488;48.092;-1.640;2024-01-15T10:45:12;9.00;;;5.50;;
74926;SDS011;63488;48.092;-1.640;2024-01-15T10:47:38;6.65;;;5.10;;
74926;SDS011;63488;48.092;-1.640;2024-01-15T10:50:03;8.52;;;4.20;;
74926;SDS011;63488;48.092;-1.640;2024-01-15T10:52:31;6.82;;;5.05;;
74926;SDS011;63488;48.092;-1.640;2024-01-15T10:54:57;9.80;;;5.20;;
74926;SDS011;63488;48.092;-1.640;2024-01-15T10:57:22;7.32;;;5.07;;
74926;SDS011;63488;48.092;-1.640;2024-01-15T10:59:48;8.35;;;6.00;;
74926;SDS011;63488;48.092;-1.640;2024-01-15T11:02:14;9.40;;;5.80;;
74926;SDS011;63488;48.092;-1.640;2024-01-15T11:04:40;10.05;;;6.68;;
74926;SDS011;63488;48.092;-1.640;2024-01-15T11:07:05;11.20;;;6.65;;
74926;SDS011;63488;48.092;-1.640;2024-01-15T11:09:31;11.10;;;7.03;;
74926;SDS011;63488;48.092;-1.640;2024-01-15T11:12:29;12.65;;;8.07;;
74926;SDS011;63488;48.092;-1.640;2024-01-15T11:14:48;10.80;;;7.72;;
74926;SDS011;63488;48.092;-1.640;2024-01-15T11:17:14;11.38;;;7.47;;
74926;SDS011;63488;48.092;-1.640;2024-01-15T11:19:46;10.68;;;5.35;;
74926;SDS011;63488;48.092;-1.640;2024-01-15T11:24:55;9.30;;;5.85;;
74926;SDS011;63488;48.092;-1.640;2024-01-15T11:27:43;10.20;;;6.43;;
74926;SDS011;63488;48.092;-1.640;2024-01-15T11:30:10;8.13;;;4.85;;
74926;SDS011;63488;48.092;-1.640;2024-01-15T11:32:36;9.90;;;6.32;;
74926;SDS011;63488;48.092;-1.640;2024-01-15T11:35:02;11.38;;;6.35;;
74926;SDS011;63488;48.092;-1.640;2024-01-15T11:37:28;9.23;;;5.75;;
74926;SDS011;63488;48.092;-1.640;2024-01-15T11:39:55;9.90;;;5.75;;
74926;SDS011;63488;48.092;-1.640;2024-01-15T11:42:21;9.77;;;5.93;;
74926;SDS011;63488;48.092;-1.640;2024-01-15T11:44:47;7.00;;;4.57;;
74926;SDS011;63488;48.092;-1.640;2024-01-15T11:47:13;7.88;;;4.50;;
74926;SDS011;63488;48.092;-1.640;2024-01-15T11:52:22;9.32;;;4.68;;
74926;SDS011;63488;48.092;-1.640;2024-01-15T11:55:00;7.72;;;4.80;;
74926;SDS011;63488;48.092;-1.640;2024-01-15T11:57:40;7.55;;;4.55;;
74926;SDS011;63488;48.092;-1.640;2024-01-15T12:00:07;7.93;;;4.90;;
74926;SDS011;63488;48.092;-1.640;2024-01-15T12:02:33;6.63;;;3.78;;
74926;SDS011;63488;48.092;-1.640;2024-01-15T12:04:59;8.60;;;4.43;;
74926;SDS011;63488;48.092;-1.640;2024-01-15T12:07:24;8.90;;;3.65;;
74926;SDS011;63488;48.092;-1.640;2024-01-15T12:09:49;6.43;;;3.70;;
74926;SDS011;63488;48.092;-1.640;2024-01-15T12:12:20;6.55;;;3.88;;
74926;SDS011;63488;48.092;-1.640;2024-01-15T12:14:48;6.13;;;3.45;;
74926;SDS011;63488;48.092;-1.640;2024-01-15T12:17:13;7.03;;;3.63;;
74926;SDS011;63488;48.092;-1.640;2024-01-15T12:19:38;5.13;;;3.20;;
74926;SDS011;63488;48.092;-1.640;2024-01-15T12:22:04;5.65;;;2.75;;
74926;SDS011;63488;48.092;-1.640;2024-01-15T12:24:29;5.50;;;3.25;;
74926;SDS011;63488;48.092;-1.640;2024-01-15T12:26:54;5.43;;;3.60;;
74926;SDS011;63488;48.092;-1.640;2024-01-15T12:29:20;7.57;;;3.90;;
74926;SDS011;63488;48.092;-1.640;2024-01-15T12:31:48;6.70;;;3.40;;
74926;SDS011;63488;48.092;-1.640;2024-01-15T12:34:14;5.47;;;3.08;;
74926;SDS011;63488;48.092;-1.640;2024-01-15T12:36:40;6.03;;;3.38;;
74926;SDS011;63488;48.092;-1.640;2024-01-15T12:39:05;5.28;;;3.00;;
74926;SDS011;63488;48.092;-1.640;2024-01-15T12:41:33;6.20;;;3.67;;
74926;SDS011;63488;48.092;-1.640;2024-01-15T12:43:58;4.30;;;1.92;;
74926;SDS011;63488;48.092;-1.640;2024-01-15T12:46:24;2.88;;;1.83;;
74926;SDS011;63488;48.092;-1.640;2024-01-15T12:48:49;4.72;;;2.13;;
74926;SDS011;63488;48.092;-1.640;2024-01-15T12:51:14;4.93;;;1.90;;
74926;SDS011;63488;48.092;-1.640;2024-01-15T12:53:40;5.15;;;2.83;;
74926;SDS011;63488;48.092;-1.640;2024-01-15T12:56:05;3.42;;;1.77;;
74926;SDS011;63488;48.092;-1.640;2024-01-15T12:58:32;3.95;;;2.10;;
74926;SDS011;63488;48.092;-1.640;2024-01-15T13:00:58;8.30;;;2.78;;
74926;SDS011;63488;48.092;-1.640;2024-01-15T13:03:23;4.00;;;2.50;;
74926;SDS011;63488;48.092;-1.640;2024-01-15T13:05:48;3.22;;;1.98;;
74926;SDS011;63488;48.092;-1.640;2024-01-15T13:08:14;4.05;;;1.90;;
74926;SDS011;63488;48.092;-1.640;2024-01-15T13:10:40;5.10;;;2.05;;
74926;SDS011;63488;48.092;-1.640;2024-01-15T13:13:07;6.82;;;3.03;;
74926;SDS011;63488;48.092;-1.640;2024-01-15T13:15:32;5.55;;;2.25;;
74926;SDS011;63488;48.092;-1.640;2024-01-15T13:17:57;5.15;;;1.92;;
74926;SDS011;63488;48.092;-1.640;2024-01-15T13:20:23;5.55;;;2.50;;
74926;SDS011;63488;48.092;-1.640;2024-01-15T13:22:48;5.78;;;2.20;;
74926;SDS011;63488;48.092;-1.640;2024-01-15T13:25:13;4.30;;;2.30;;
74926;SDS011;63488;48.092;-1.640;2024-01-15T13:27:39;5.13;;;2.38;;
74926;SDS011;63488;48.092;-1.640;2024-01-15T13:30:05;5.78;;;3.15;;
74926;SDS011;63488;48.092;-1.640;2024-01-15T13:32:32;4.25;;;2.28;;
74926;SDS011;63488;48.092;-1.640;2024-01-15T13:34:57;3.85;;;1.63;;
74926;SDS011;63488;48.092;-1.640;2024-01-15T13:37:23;2.83;;;1.70;;
74926;SDS011;63488;48.092;-1.640;2024-01-15T13:39:52;3.55;;;1.67;;
74926;SDS011;63488;48.092;-1.640;2024-01-15T13:42:19;6.05;;;2.22;;
74926;SDS011;63488;48.092;-1.640;2024-01-15T13:44:46;4.97;;;2.60;;
74926;SDS011;63488;48.092;-1.640;2024-01-15T13:47:12;3.83;;;2.55;;
74926;SDS011;63488;48.092;-1.640;2024-01-15T13:49:38;3.47;;;2.22;;
74926;SDS011;63488;48.092;-1.640;2024-01-15T13:52:04;5.15;;;2.72;;
74926;SDS011;63488;48.092;-1.640;2024-01-15T13:54:29;5.25;;;2.92;;
74926;SDS011;63488;48.092;-1.640;2024-01-15T13:56:55;4.60;;;2.67;;
74926;SDS011;63488;48.092;-1.640;2024-01-15T13:59:21;6.88;;;2.35;;
74926;SDS011;63488;48.092;-1.640;2024-01-15T14:01:47;6.18;;;2.53;;
74926;SDS011;63488;48.092;-1.640;2024-01-15T14:04:35;4.43;;;2.50;;
74926;SDS011;63488;48.092;-1.640;2024-01-15T14:07:03;5.27;;;2.67;;
74926;SDS011;63488;48.092;-1.640;2024-01-15T14:09:29;8.18;;;3.40;;
74926;SDS011;63488;48.092;-1.640;2024-01-15T14:11:56;5.57;;;3.15;;
74926;SDS011;63488;48.092;-1.640;2024-01-15T14:14:22;6.53;;;4.30;;